sensor_id;sensor_type;location;lat;lon;timestamp;P1;durP1;ratioP1;P2;durP2;ratioP2
8268;SDS011;4174;48.304;16.364;2023-05-29T00:00:33;8.18;;;3.40;;
8268;SDS011;4174;48.304;16.364;2023-05-29T00:06:36;10.45;;;3.55;;
8268;SDS011;4174;48.304;16.364;2023-05-29T00:12:39;9.07;;;3.70;;
8268;SDS011;4174;48.304;16.364;2023-05-29T00:18:43;10.48;;;3.60;;
8268;SDS011;4174;48.304;16.364;2023-05-29T00:24:46;9.07;;;3.67;;
8268;SDS011;4174;48.304;16.364;2023-05-29T00:30:50;9.47;;;3.70;;
8268;SDS011;4174;48.304;16.364;2023-05-29T00:36:53;9.07;;;3.50;;
8268;SDS011;4174;48.304;16.364;2023-05-29T00:42:57;9.60;;;3.60;;
8268;SDS011;4174;48.304;16.364;2023-05-29T00:49:01;8.97;;;3.80;;
8268;SDS011;4174;48.304;16.364;2023-05-29T00:55:05;9.60;;;3.67;;
8268;SDS011;4174;48.304;16.364;2023-05-29T01:01:09;8.82;;;3.70;;
8268;SDS011;4174;48.304;16.364;2023-05-29T01:07:13;11.12;;;3.67;;
8268;SDS011;4174;48.304;16.364;2023-05-29T01:13:18;8.55;;;3.70;;
8268;SDS011;4174;48.304;16.364;2023-05-29T01:19:28;9.87;;;3.70;;
8268;SDS011;4174;48.304;16.364;2023-05-29T01:31:58;9.40;;;3.80;;
8268;SDS011;4174;48.304;16.364;2023-05-29T01:38:01;8.40;;;3.50;;
8268;SDS011;4174;48.304;16.364;2023-05-29T01:44:05;9.00;;;3.20;;
8268;SDS011;4174;48.304;16.364;2023-05-29T01:50:07;7.73;;;3.30;;
8268;SDS011;4174;48.304;16.364;2023-05-29T01:56:11;9.50;;;3.70;;
8268;SDS011;4174;48.304;16.364;2023-05-29T02:02:14;9.20;;;3.60;;
8268;SDS011;4174;48.304;16.364;2023-05-29T02:08:18;10.67;;;3.60;;
8268;SDS011;4174;48.304;16.364;2023-05-29T02:14:21;10.25;;;3.60;;
8268;SDS011;4174;48.304;16.364;2023-05-29T02:20:26;9.50;;;3.72;;
8268;SDS011;4174;48.304;16.364;2023-05-29T02:26:29;11.53;;;3.90;;
8268;SDS011;4174;48.304;16.364;2023-05-29T02:32:32;8.30;;;3.45;;
8268;SDS011;4174;48.304;16.364;2023-05-29T02:38:36;9.40;;;3.70;;
8268;SDS011;4174;48.304;16.364;2023-05-29T02:44:39;8.98;;;3.90;;
8268;SDS011;4174;48.304;16.364;2023-05-29T02:50:42;9.27;;;3.80;;
8268;SDS011;4174;48.304;16.364;2023-05-29T02:56:46;10.00;;;3.93;;
8268;SDS011;4174;48.304;16.364;2023-05-29T03:02:50;9.97;;;3.60;;
8268;SDS011;4174;48.304;16.364;2023-05-29T03:08:53;11.10;;;3.90;;
8268;SDS011;4174;48.304;16.364;2023-05-29T03:14:57;11.37;;;4.40;;
8268;SDS011;4174;48.304;16.364;2023-05-29T03:21:01;13.07;;;4.82;;
8268;SDS011;4174;48.304;16.364;2023-05-29T03:27:05;10.03;;;3.90;;
8268;SDS011;4174;48.304;16.364;2023-05-29T03:33:09;11.10;;;4.33;;
8268;SDS011;4174;48.304;16.364;2023-05-29T03:39:13;9.60;;;4.50;;
8268;SDS011;4174;48.304;16.364;2023-05-29T03:45:16;10.10;;;4.30;;
8268;SDS011;4174;48.304;16.364;2023-05-29T03:51:20;10.57;;;4.20;;
8268;SDS011;4174;48.304;16.364;2023-05-29T03:57:24;11.27;;;4.22;;
8268;SDS011;4174;48.304;16.364;2023-05-29T04:03:28;9.82;;;4.10;;
8268;SDS011;4174;48.304;16.364;2023-05-29T04:09:31;10.33;;;4.10;;
8268;SDS011;4174;48.304;16.364;2023-05-29T04:15:34;10.17;;;3.93;;
8268;SDS011;4174;48.304;16.364;2023-05-29T04:21:37;9.73;;;4.17;;
8268;SDS011;4174;48.304;16.364;2023-05-29T04:27:41;11.00;;;4.00;;
8268;SDS011;4174;48.304;16.364;2023-05-29T04:33:44;13.10;;;5.90;;
8268;SDS011;4174;48.304;16.364;2023-05-29T04:39:48;11.13;;;4.10;;
8268;SDS011;4174;48.304;16.364;2023-05-29T04:45:52;12.20;;;4.13;;
8268;SDS011;4174;48.304;16.364;2023-05-29T04:51:54;9.07;;;3.80;;
8268;SDS011;4174;48.304;16.364;2023-05-29T04:57:58;9.20;;;3.85;;
8268;SDS011;4174;48.304;16.364;2023-05-29T05:04:01;10.00;;;3.60;;
8268;SDS011;4174;48.304;16.364;2023-05-29T05:10:06;8.53;;;3.40;;
8268;SDS011;4174;48.304;16.364;2023-05-29T05:16:11;9.83;;;3.70;;
8268;SDS011;4174;48.304;16.364;2023-05-29T05:22:16;9.50;;;3.37;;
8268;SDS011;4174;48.304;16.364;2023-05-29T05:28:20;9.30;;;3.60;;
8268;SDS011;4174;48.304;16.364;2023-05-29T05:34:23;9.20;;;3.27;;
8268;SDS011;4174;48.304;16.364;2023-05-29T05:40:26;9.13;;;3.57;;
8268;SDS011;4174;48.304;16.364;2023-05-29T05:46:29;8.53;;;3.20;;
8268;SDS011;4174;48.304;16.364;2023-05-29T05:52:33;9.75;;;3.40;;
8268;SDS011;4174;48.304;16.364;2023-05-29T05:58:37;9.50;;;3.40;;
8268;SDS011;4174;48.304;16.364;2023-05-29T06:04:41;8.73;;;3.13;;
8268;SDS011;4174;48.304;16.364;2023-05-29T06:10:45;8.35;;;3.00;;
8268;SDS011;4174;48.304;16.364;2023-05-29T06:16:49;7.72;;;2.85;;
8268;SDS011;4174;48.304;16.364;2023-05-29T06:22:52;10.90;;;3.50;;
8268;SDS011;4174;48.304;16.364;2023-05-29T06:28:57;11.20;;;2.90;;
8268;SDS011;4174;48.304;16.364;2023-05-29T06:35:00;9.60;;;3.08;;
8268;SDS011;4174;48.304;16.364;2023-05-29T06:41:04;8.33;;;2.90;;
8268;SDS011;4174;48.304;16.364;2023-05-29T06:47:08;10.70;;;2.80;;
8268;SDS011;4174;48.304;16.364;2023-05-29T06:53:12;6.53;;;2.50;;
8268;SDS011;4174;48.304;16.364;2023-05-29T06:59:16;6.50;;;2.30;;
8268;SDS011;4174;48.304;16.364;2023-05-29T07:05:20;6.68;;;2.30;;
8268;SDS011;4174;48.304;16.364;2023-05-29T07:11:23;8.40;;;2.17;;
8268;SDS011;4174;48.304;16.364;2023-05-29T07:17:27;6.57;;;2.20;;
8268;SDS011;4174;48.304;16.364;2023-05-29T07:23:30;6.13;;;2.17;;
8268;SDS011;4174;48.304;16.364;2023-05-29T07:29:35;9.10;;;2.13;;
8268;SDS011;4174;48.304;16.364;2023-05-29T07:35:39;8.05;;;2.30;;
8268;SDS011;4174;48.304;16.364;2023-05-29T07:41:43;7.13;;;2.03;;
8268;SDS011;4174;48.304;16.364;2023-05-29T07:47:46;6.30;;;2.22;;
8268;SDS011;4174;48.304;16.364;2023-05-29T07:53:50;7.00;;;2.30;;
8268;SDS011;4174;48.304;16.364;2023-05-29T07:59:54;6.67;;;2.33;;
8268;SDS011;4174;48.304;16.364;2023-05-29T08:05:59;8.80;;;2.50;;
8268;SDS011;4174;48.304;16.364;2023-05-29T08:12:04;7.87;;;2.90;;
8268;SDS011;4174;48.304;16.364;2023-05-29T08:18:09;7.60;;;2.60;;
8268;SDS011;4174;48.304;16.364;2023-05-29T08:24:12;6.30;;;2.50;;
8268;SDS011;4174;48.304;16.364;2023-05-29T08:30:16;8.43;;;2.60;;
8268;SDS011;4174;48.304;16.364;2023-05-29T08:36:20;8.50;;;2.57;;
8268;SDS011;4174;48.304;16.364;2023-05-29T08:42:26;9.23;;;2.60;;
8268;SDS011;4174;48.304;16.364;2023-05-29T08:48:30;6.55;;;2.50;;
8268;SDS011;4174;48.304;16.364;2023-05-29T08:54:32;6.30;;;2.45;;
8268;SDS011;4174;48.304;16.364;2023-05-29T09:00:36;6.55;;;2.20;;
8268;SDS011;4174;48.304;16.364;2023-05-29T09:06:39;8.20;;;2.60;;
8268;SDS011;4174;48.304;16.364;2023-05-29T09:12:42;6.70;;;2.20;;
8268;SDS011;4174;48.304;16.364;2023-05-29T09:18:46;7.03;;;2.67;;
8268;SDS011;4174;48.304;16.364;2023-05-29T09:24:50;6.20;;;2.50;;
8268;SDS011;4174;48.304;16.364;2023-05-29T09:30:53;7.47;;;2.50;;
8268;SDS011;4174;48.304;16.364;2023-05-29T09:37:01;7.00;;;2.20;;
8268;SDS011;4174;48.304;16.364;2023-05-29T09:43:03;6.22;;;2.00;;
8268;SDS011;4174;48.304;16.364;2023-05-29T09:49:11;6.83;;;2.20;;
8268;SDS011;4174;48.304;16.364;2023-05-29T09:55:13;6.07;;;2.00;;
8268;SDS011;4174;48.304;16.364;2023-05-29T10:01:16;6.33;;;1.97;;
8268;SDS011;4174;48.304;16.364;2023-05-29T10:07:24;5.97;;;2.10;;
8268;SDS011;4174;48.304;16.364;2023-05-29T10:13:28;5.73;;;1.90;;
8268;SDS011;4174;48.304;16.364;2023-05-29T10:19:31;9.13;;;2.10;;
8268;SDS011;4174;48.304;16.364;2023-05-29T10:25:34;6.12;;;2.20;;
8268;SDS011;4174;48.304;16.364;2023-05-29T10:38:09;10.33;;;3.63;;
8268;SDS011;4174;48.304;16.364;2023-05-29T10:44:50;9.00;;;3.43;;
8268;SDS011;4174;48.304;16.364;2023-05-29T10:50:45;6.70;;;2.50;;
8268;SDS011;4174;48.304;16.364;2023-05-29T10:56:52;6.20;;;2.03;;
8268;SDS011;4174;48.304;16.364;2023-05-29T11:02:54;7.07;;;1.90;;
8268;SDS011;4174;48.304;16.364;2023-05-29T11:08:57;13.18;;;2.22;;
8268;SDS011;4174;48.304;16.364;2023-05-29T11:15:04;8.80;;;2.33;;
8268;SDS011;4174;48.304;16.364;2023-05-29T11:21:21;6.40;;;2.37;;
8268;SDS011;4174;48.304;16.364;2023-05-29T11:27:36;7.00;;;2.37;;
8268;SDS011;4174;48.304;16.364;2023-05-29T11:33:40;6.10;;;2.17;;
8268;SDS011;4174;48.304;16.364;2023-05-29T11:39:43;5.78;;;2.17;;
8268;SDS011;4174;48.304;16.364;2023-05-29T11:45:46;5.10;;;2.00;;
8268;SDS011;4174;48.304;16.364;2023-05-29T11:51:50;6.47;;;2.30;;
8268;SDS011;4174;48.304;16.364;2023-05-29T11:57:56;6.82;;;2.53;;
8268;SDS011;4174;48.304;16.364;2023-05-29T12:03:58;6.85;;;2.50;;
8268;SDS011;4174;48.304;16.364;2023-05-29T12:16:11;5.90;;;2.27;;
8268;SDS011;4174;48.304;16.364;2023-05-29T12:22:15;6.65;;;2.10;;
8268;SDS011;4174;48.304;16.364;2023-05-29T12:28:18;6.10;;;2.40;;
8268;SDS011;4174;48.304;16.364;2023-05-29T12:34:21;8.83;;;2.40;;
8268;SDS011;4174;48.304;16.364;2023-05-29T12:40:26;5.45;;;2.10;;
8268;SDS011;4174;48.304;16.364;2023-05-29T12:46:35;6.80;;;2.20;;
8268;SDS011;4174;48.304;16.364;2023-05-29T12:52:40;7.78;;;2.28;;
8268;SDS011;4174;48.304;16.364;2023-05-29T12:58:45;5.57;;;2.10;;
8268;SDS011;4174;48.304;16.364;2023-05-29T13:04:48;6.87;;;2.20;;
8268;SDS011;4174;48.304;16.364;2023-05-29T13:10:52;5.87;;;2.30;;
8268;SDS011;4174;48.304;16.364;2023-05-29T13:16:56;6.35;;;2.20;;
8268;SDS011;4174;48.304;16.364;2023-05-29T13:23:00;8.30;;;2.20;;
8268;SDS011;4174;48.304;16.364;2023-05-29T13:29:05;6.30;;;2.30;;
8268;SDS011;4174;48.304;16.364;2023-05-29T13:35:09;5.63;;;2.40;;
8268;SDS011;4174;48.304;16.364;2023-05-29T13:41:13;8.07;;;2.30;;
8268;SDS011;4174;48.304;16.364;2023-05-29T13:47:17;7.23;;;2.50;;
8268;SDS011;4174;48.304;16.364;2023-05-29T13:53:21;6.25;;;2.40;;
8268;SDS011;4174;48.304;16.364;2023-05-29T13:59:24;7.77;;;3.07;;
8268;SDS011;4174;48.304;16.364;2023-05-29T14:05:28;6.80;;;2.40;;
8268;SDS011;4174;48.304;16.364;2023-05-29T14:11:32;7.37;;;2.70;;
8268;SDS011;4174;48.304;16.364;2023-05-29T14:17:36;7.57;;;2.47;;
8268;SDS011;4174;48.304;16.364;2023-05-29T14:23:40;8.53;;;2.60;;
8268;SDS011;4174;48.304;16.364;2023-05-29T14:29:44;7.83;;;2.67;;
8268;SDS011;4174;48.304;16.364;2023-05-29T14:35:48;7.43;;;2.50;;
8268;SDS011;4174;48.304;16.364;2023-05-29T14:41:52;8.00;;;2.80;;
8268;SDS011;4174;48.304;16.364;2023-05-29T14:47:56;7.40;;;2.85;;
8268;SDS011;4174;48.304;16.364;2023-05-29T14:53:59;7.63;;;2.70;;
8268;SDS011;4174;48.304;16.364;2023-05-29T15:00:04;7.75;;;2.55;;
8268;SDS011;4174;48.304;16.364;2023-05-29T15:06:09;7.23;;;2.70;;
8268;SDS011;4174;48.304;16.364;2023-05-29T15:12:11;8.02;;;2.60;;
8268;SDS011;4174;48.304;16.364;2023-05-29T15:18:15;9.47;;;2.70;;
8268;SDS011;4174;48.304;16.364;2023-05-29T15:24:19;8.73;;;2.62;;
8268;SDS011;4174;48.304;16.364;2023-05-29T15:30:22;8.53;;;2.60;;
8268;SDS011;4174;48.304;16.364;2023-05-29T15:36:26;7.12;;;2.40;;
8268;SDS011;4174;48.304;16.364;2023-05-29T15:42:29;8.85;;;2.78;;
8268;SDS011;4174;48.304;16.364;2023-05-29T15:48:32;7.35;;;2.65;;
8268;SDS011;4174;48.304;16.364;2023-05-29T15:54:37;7.03;;;2.70;;
8268;SDS011;4174;48.304;16.364;2023-05-29T16:00:41;7.27;;;2.73;;
8268;SDS011;4174;48.304;16.364;2023-05-29T16:06:44;7.90;;;2.60;;
8268;SDS011;4174;48.304;16.364;2023-05-29T16:12:48;6.43;;;2.50;;
8268;SDS011;4174;48.304;16.364;2023-05-29T16:18:52;7.00;;;2.50;;
8268;SDS011;4174;48.304;16.364;2023-05-29T16:24:56;8.50;;;2.53;;
8268;SDS011;4174;48.304;16.364;2023-05-29T16:30:59;8.77;;;2.70;;
8268;SDS011;4174;48.304;16.364;2023-05-29T16:37:04;6.87;;;2.78;;
8268;SDS011;4174;48.304;16.364;2023-05-29T16:43:08;8.43;;;2.75;;
8268;SDS011;4174;48.304;16.364;2023-05-29T16:49:12;6.30;;;2.50;;
8268;SDS011;4174;48.304;16.364;2023-05-29T16:55:16;7.73;;;2.50;;
8268;SDS011;4174;48.304;16.364;2023-05-29T17:01:19;7.57;;;2.53;;
8268;SDS011;4174;48.304;16.364;2023-05-29T17:07:23;8.47;;;2.50;;
8268;SDS011;4174;48.304;16.364;2023-05-29T17:13:27;7.03;;;2.50;;
8268;SDS011;4174;48.304;16.364;2023-05-29T17:19:30;8.03;;;2.70;;
8268;SDS011;4174;48.304;16.364;2023-05-29T17:25:35;7.65;;;2.90;;
8268;SDS011;4174;48.304;16.364;2023-05-29T17:31:38;7.78;;;2.58;;
8268;SDS011;4174;48.304;16.364;2023-05-29T17:37:42;7.83;;;2.80;;
8268;SDS011;4174;48.304;16.364;2023-05-29T17:43:45;6.65;;;2.70;;
8268;SDS011;4174;48.304;16.364;2023-05-29T17:49:49;7.00;;;2.90;;
8268;SDS011;4174;48.304;16.364;2023-05-29T17:55:53;7.70;;;2.70;;
8268;SDS011;4174;48.304;16.364;2023-05-29T18:01:58;7.50;;;2.60;;
8268;SDS011;4174;48.304;16.364;2023-05-29T18:08:01;7.53;;;2.57;;
8268;SDS011;4174;48.304;16.364;2023-05-29T18:14:04;14.95;;;3.80;;
8268;SDS011;4174;48.304;16.364;2023-05-29T18:20:08;8.20;;;3.50;;
8268;SDS011;4174;48.304;16.364;2023-05-29T18:26:14;9.50;;;3.50;;
8268;SDS011;4174;48.304;16.364;2023-05-29T18:32:20;8.25;;;3.45;;
8268;SDS011;4174;48.304;16.364;2023-05-29T18:38:21;7.70;;;2.97;;
8268;SDS011;4174;48.304;16.364;2023-05-29T18:44:25;8.60;;;3.00;;
8268;SDS011;4174;48.304;16.364;2023-05-29T18:50:29;7.10;;;2.87;;
8268;SDS011;4174;48.304;16.364;2023-05-29T18:56:33;8.57;;;2.80;;
8268;SDS011;4174;48.304;16.364;2023-05-29T19:02:36;8.20;;;2.90;;
8268;SDS011;4174;48.304;16.364;2023-05-29T19:08:39;8.07;;;2.60;;
8268;SDS011;4174;48.304;16.364;2023-05-29T19:14:42;8.40;;;2.65;;
8268;SDS011;4174;48.304;16.364;2023-05-29T19:20:46;7.60;;;2.80;;
8268;SDS011;4174;48.304;16.364;2023-05-29T19:26:50;7.62;;;2.72;;
8268;SDS011;4174;48.304;16.364;2023-05-29T19:32:54;7.50;;;2.60;;
8268;SDS011;4174;48.304;16.364;2023-05-29T19:38:58;9.33;;;2.60;;
8268;SDS011;4174;48.304;16.364;2023-05-29T19:45:01;7.82;;;2.85;;
8268;SDS011;4174;48.304;16.364;2023-05-29T19:51:05;8.03;;;3.20;;
8268;SDS011;4174;48.304;16.364;2023-05-29T19:57:08;9.13;;;3.30;;
8268;SDS011;4174;48.304;16.364;2023-05-29T20:03:11;7.32;;;2.75;;
8268;SDS011;4174;48.304;16.364;2023-05-29T20:09:14;6.90;;;2.73;;
8268;SDS011;4174;48.304;16.364;2023-05-29T20:15:18;9.02;;;2.87;;
8268;SDS011;4174;48.304;16.364;2023-05-29T20:21:22;7.50;;;2.90;;
8268;SDS011;4174;48.304;16.364;2023-05-29T20:27:25;7.47;;;2.80;;
8268;SDS011;4174;48.304;16.364;2023-05-29T20:33:29;8.97;;;3.20;;
8268;SDS011;4174;48.304;16.364;2023-05-29T20:39:32;9.63;;;3.28;;
8268;SDS011;4174;48.304;16.364;2023-05-29T20:45:36;7.70;;;3.30;;
8268;SDS011;4174;48.304;16.364;2023-05-29T20:51:39;10.00;;;3.53;;
8268;SDS011;4174;48.304;16.364;2023-05-29T20:57:43;9.57;;;2.97;;
8268;SDS011;4174;48.304;16.364;2023-05-29T21:03:46;8.85;;;3.12;;
8268;SDS011;4174;48.304;16.364;2023-05-29T21:09:50;9.02;;;3.45;;
8268;SDS011;4174;48.304;16.364;2023-05-29T21:15:53;8.97;;;3.20;;
8268;SDS011;4174;48.304;16.364;2023-05-29T21:21:58;8.10;;;3.20;;
8268;SDS011;4174;48.304;16.364;2023-05-29T21:28:02;7.87;;;3.30;;
8268;SDS011;4174;48.304;16.364;2023-05-29T21:34:07;8.67;;;3.37;;
8268;SDS011;4174;48.304;16.364;2023-05-29T21:40:10;9.00;;;3.45;;
8268;SDS011;4174;48.304;16.364;2023-05-29T21:46:15;9.45;;;3.50;;
8268;SDS011;4174;48.304;16.364;2023-05-29T21:52:18;8.07;;;3.17;;
8268;SDS011;4174;48.304;16.364;2023-05-29T21:58:21;7.93;;;3.10;;
8268;SDS011;4174;48.304;16.364;2023-05-29T22:04:25;8.27;;;3.10;;
8268;SDS011;4174;48.304;16.364;2023-05-29T22:10:28;9.17;;;3.70;;
8268;SDS011;4174;48.304;16.364;2023-05-29T22:16:32;9.20;;;3.40;;
8268;SDS011;4174;48.304;16.364;2023-05-29T22:22:34;9.43;;;3.40;;
8268;SDS011;4174;48.304;16.364;2023-05-29T22:28:38;7.63;;;3.43;;
8268;SDS011;4174;48.304;16.364;2023-05-29T22:34:41;8.80;;;3.85;;
8268;SDS011;4174;48.304;16.364;2023-05-29T22:40:46;9.47;;;3.60;;
8268;SDS011;4174;48.304;16.364;2023-05-29T22:46:50;8.48;;;3.42;;
8268;SDS011;4174;48.304;16.364;2023-05-29T22:52:53;8.77;;;3.10;;
8268;SDS011;4174;48.304;16.364;2023-05-29T22:58:57;9.02;;;3.45;;
8268;SDS011;4174;48.304;16.364;2023-05-29T23:05:00;8.43;;;3.40;;
8268;SDS011;4174;48.304;16.364;2023-05-29T23:11:03;9.33;;;3.50;;
8268;SDS011;4174;48.304;16.364;2023-05-29T23:17:07;7.90;;;3.70;;
8268;SDS011;4174;48.304;16.364;2023-05-29T23:23:11;8.70;;;3.60;;
8268;SDS011;4174;48.304;16.364;2023-05-29T23:29:14;8.70;;;3.10;;
8268;SDS011;4174;48.304;16.364;2023-05-29T23:35:19;8.77;;;3.53;;
8268;SDS011;4174;48.304;16.364;2023-05-29T23:41:22;8.70;;;3.40;;
8268;SDS011;4174;48.304;16.364;2023-05-29T23:47:26;8.93;;;3.30;;
8268;SDS011;4174;48.304;16.364;2023-05-29T23:53:30;9.43;;;3.20;;
8268;SDS011;4174;48.304;16.364;2023-05-29T23:59:33;8.50;;;3.30;;
